Lowest pressure

Not for real navigation. The accuracy of this data is not assured See disclaimer for more information



ICAO NAME COUNTRY WIND Kt GUST Kt VIS m TEMP/DEW C BARO METAR
BGKK Kulusuk Lufthavn Greenland 5 0 800 -4/-5 28.08 BGKK 251250Z AUTO VRB05KT 0800NDV SN OVC012/// M04/M05 Q0951
BIIS 18 28 9999 0/-5 28.50 BIIS 251300Z 24018G28KT 9999 -SHSN BKN025 00/M05 Q0965 R08/720240
NZSP Amundsen-Scott South Pole Stat Antarctica 11 0 1600 -40/0 28.54 NZSP 251150Z 05011KT 1600 IC BR BKN008 OVC020 M40/ A2854 RMK CLN AIR 03011KT ALL WNDS GRID SDP/HDN
BIAR Akureyri Iceland 12 26 9999 0/-6 28.56 BIAR 251300Z 18012G26KT 100V230 9999 -SN BKN022 00/M06 Q0967
BIEG Egilsstadir Iceland 23 33 9999 1/-7 28.61 BIEG 251300Z 21023G33KT 9999 FEW050 01/M07 Q0969

Show more